createdAt,value
2022-11-13T00:00:33.955Z,372.16
2022-11-13T00:01:29.281Z,365.93
2022-11-13T00:02:24.646Z,368.81
2022-11-13T00:03:20.911Z,370.90
2022-11-13T00:04:16.238Z,374.28
2022-11-13T00:05:12.086Z,374.28
2022-11-13T00:06:07.366Z,381.27
2022-11-13T00:07:02.594Z,382.58
2022-11-13T00:07:58.361Z,383.02
2022-11-13T00:08:53.555Z,382.80
2022-11-13T00:09:49.404Z,386.79
2022-11-13T00:10:44.677Z,385.90
2022-11-13T00:11:39.930Z,384.56
2022-11-13T00:12:35.682Z,383.68
2022-11-13T00:13:31.011Z,384.56
2022-11-13T00:14:25.985Z,387.69
2022-11-13T00:15:22.551Z,381.70
2022-11-13T00:16:17.715Z,383.46
2022-11-13T00:17:13.545Z,386.35
2022-11-13T00:18:08.731Z,385.23
2022-11-13T00:19:03.890Z,388.14
2022-11-13T00:19:59.771Z,389.73
2022-11-13T00:20:55.061Z,392.49
2022-11-13T00:21:51.041Z,397.16
2022-11-13T00:22:46.251Z,398.82
2022-11-13T00:23:41.285Z,402.68
2022-11-13T00:24:37.128Z,404.14
2022-11-13T00:25:32.428Z,409.60
2022-11-13T00:26:27.838Z,414.44
2022-11-13T00:27:23.986Z,414.95
2022-11-13T00:28:19.360Z,419.92
2022-11-13T00:29:15.124Z,420.45
2022-11-13T00:30:13.692Z,425.28
2022-11-13T00:31:06.904Z,429.38
2022-11-13T00:32:01.140Z,428.83
2022-11-13T00:32:56.989Z,428.01
2022-11-13T00:34:48.860Z,431.33
2022-11-13T00:35:43.034Z,433.29
2022-11-13T00:36:39.004Z,434.99
2022-11-13T00:37:34.171Z,435.27
2022-11-13T00:38:29.698Z,434.14
2022-11-13T00:39:25.174Z,432.73
2022-11-13T00:40:20.357Z,432.17
2022-11-13T00:41:16.345Z,429.66
2022-11-13T00:42:11.374Z,429.38
2022-11-13T00:43:06.547Z,427.73
2022-11-13T00:44:02.423Z,430.21
2022-11-13T00:44:57.679Z,428.83
2022-11-13T00:45:52.951Z,429.38
2022-11-13T00:46:48.109Z,428.28
2022-11-13T00:47:43.265Z,427.18
2022-11-13T00:48:39.136Z,425.01
2022-11-13T00:49:34.429Z,427.46
2022-11-13T00:50:30.578Z,427.46
2022-11-13T00:51:25.468Z,427.18
2022-11-13T00:52:20.813Z,428.01
2022-11-13T00:53:18.264Z,423.12
2022-11-13T00:54:11.771Z,424.19
2022-11-13T00:55:07.104Z,424.73
2022-11-13T00:56:03.448Z,423.92
2022-11-13T00:56:58.596Z,423.65
2022-11-13T00:57:54.457Z,426.36
2022-11-13T00:58:49.725Z,424.19
2022-11-13T00:59:45.070Z,424.19
2022-11-13T01:00:40.712Z,417.82
2022-11-13T01:01:35.906Z,421.51
2022-11-13T01:02:31.088Z,421.25
2022-11-13T01:03:26.355Z,421.25
2022-11-13T01:04:21.766Z,420.98
2022-11-13T01:05:16.741Z,416.77
2022-11-13T01:06:11.828Z,419.39
2022-11-13T01:07:06.811Z,416.51
2022-11-13T01:08:01.823Z,419.39
2022-11-13T01:08:56.888Z,422.05
2022-11-13T01:09:51.911Z,419.13
2022-11-13T01:10:53.220Z,404.63
2022-11-13T01:11:43.032Z,408.10
2022-11-13T01:12:37.153Z,408.10
2022-11-13T01:13:32.173Z,410.11
2022-11-13T01:14:28.951Z,402.19
2022-11-13T01:15:24.110Z,405.12
2022-11-13T01:16:19.594Z,409.35
2022-11-13T01:17:14.596Z,411.88
2022-11-13T01:18:09.643Z,412.39
2022-11-13T01:19:05.310Z,413.92
2022-11-13T01:19:59.814Z,418.34
2022-11-13T01:20:54.855Z,414.70
2022-11-13T01:21:49.890Z,410.86
2022-11-13T01:22:45.025Z,413.67
2022-11-13T01:23:40.063Z,418.34
2022-11-13T01:24:35.086Z,420.71
2022-11-13T01:25:30.142Z,419.39
2022-11-13T01:26:25.137Z,420.45
2022-11-13T01:27:20.552Z,421.25
2022-11-13T01:28:15.714Z,423.92
2022-11-13T01:29:11.000Z,429.66
2022-11-13T01:30:06.173Z,433.01
2022-11-13T01:31:01.505Z,435.55
2022-11-13T01:31:56.629Z,437.27
2022-11-13T01:32:51.788Z,442.20
2022-11-13T01:33:47.045Z,439.86
2022-11-13T01:34:42.209Z,444.55
2022-11-13T01:35:37.359Z,446.34
2022-11-13T01:36:32.667Z,446.64
2022-11-13T01:37:27.959Z,449.95
2022-11-13T01:38:23.138Z,451.17
2022-11-13T01:39:18.249Z,452.09
2022-11-13T01:40:13.498Z,453.01
2022-11-13T01:41:08.854Z,452.70
2022-11-13T01:42:03.995Z,455.49
2022-11-13T01:42:59.219Z,457.67
2022-11-13T01:43:54.395Z,458.30
2022-11-13T01:44:49.544Z,460.52
2022-11-13T01:45:44.673Z,464.05
2022-11-13T01:46:39.822Z,465.34
2022-11-13T01:47:35.008Z,465.02
2022-11-13T01:48:30.507Z,461.48
2022-11-13T01:49:25.670Z,463.40
2022-11-13T01:50:21.001Z,464.05
2022-11-13T01:51:16.009Z,468.61
2022-11-13T01:52:11.278Z,464.37
2022-11-13T01:53:06.538Z,463.72
2022-11-13T01:54:01.949Z,463.08
2022-11-13T01:54:57.099Z,459.89
2022-11-13T01:55:52.654Z,462.76
2022-11-13T01:56:47.629Z,460.20
2022-11-13T01:57:43.799Z,463.08
2022-11-13T01:58:38.135Z,459.89
2022-11-13T01:59:33.163Z,459.89
2022-11-13T02:00:28.442Z,463.08
2022-11-13T02:01:23.515Z,461.48
2022-11-13T02:02:18.679Z,463.40
2022-11-13T02:03:13.829Z,463.08
2022-11-13T02:04:09.060Z,462.76
2022-11-13T02:05:04.202Z,465.02
2022-11-13T02:05:59.493Z,467.62
2022-11-13T02:06:54.663Z,465.34
2022-11-13T02:07:49.799Z,468.61
2022-11-13T02:08:45.130Z,471.59
2022-11-13T02:09:40.019Z,467.95
2022-11-13T02:10:35.026Z,474.28
2022-11-13T02:11:30.068Z,474.28
2022-11-13T02:12:25.081Z,471.93
2022-11-13T02:13:20.192Z,475.97
2022-11-13T02:14:15.202Z,476.31
2022-11-13T02:15:10.283Z,469.27
2022-11-13T02:16:06.396Z,474.61
2022-11-13T02:17:01.402Z,470.93
2022-11-13T02:17:56.490Z,475.63
2022-11-13T02:18:51.520Z,476.65
2022-11-13T02:19:46.542Z,471.59
2022-11-13T02:20:41.596Z,474.28
2022-11-13T02:21:36.603Z,479.39
2022-11-13T02:22:31.621Z,477.33
2022-11-13T02:23:26.849Z,481.82
2022-11-13T02:24:21.989Z,481.82
2022-11-13T02:25:17.148Z,478.70
2022-11-13T02:26:12.536Z,481.12
2022-11-13T02:27:08.385Z,478.36
2022-11-13T02:28:03.428Z,483.91
2022-11-13T02:28:58.594Z,484.97
2022-11-13T02:29:54.491Z,478.70
2022-11-13T02:30:49.663Z,483.56
2022-11-13T02:31:45.037Z,487.81
2022-11-13T02:32:41.310Z,489.60
2022-11-13T02:33:36.622Z,488.52
2022-11-13T02:34:32.367Z,487.45
2022-11-13T02:35:27.631Z,488.52
2022-11-13T02:36:22.942Z,491.04
2022-11-13T02:37:18.752Z,483.91
2022-11-13T02:38:13.772Z,487.10
2022-11-13T02:39:09.511Z,483.21
2022-11-13T02:40:04.687Z,487.10
2022-11-13T02:41:00.118Z,488.17
2022-11-13T02:41:55.905Z,489.96
2022-11-13T02:42:51.077Z,491.77
2022-11-13T02:43:46.257Z,492.13
2022-11-13T02:44:42.776Z,494.68
2022-11-13T02:45:37.972Z,496.16
2022-11-13T02:46:33.851Z,492.49
2022-11-13T02:47:28.991Z,493.95
2022-11-13T02:48:24.197Z,496.89
2022-11-13T02:49:20.080Z,489.24
2022-11-13T02:50:15.280Z,483.91
2022-11-13T02:51:10.980Z,490.32
2022-11-13T02:52:06.261Z,487.45
2022-11-13T02:53:01.445Z,492.13
2022-11-13T02:53:57.339Z,488.17
2022-11-13T02:54:52.531Z,494.68
2022-11-13T02:55:47.796Z,494.32
2022-11-13T02:56:44.192Z,494.68
2022-11-13T02:57:39.500Z,500.25
2022-11-13T02:58:35.352Z,501.76
2022-11-13T02:59:30.571Z,508.26
2022-11-13T03:00:25.750Z,505.56
2022-11-13T03:01:21.580Z,502.13
2022-11-13T03:02:16.749Z,502.89
2022-11-13T03:03:12.598Z,503.65
2022-11-13T03:04:07.638Z,508.26
2022-11-13T03:05:11.954Z,509.42
2022-11-13T03:05:59.919Z,505.94
2022-11-13T03:06:54.179Z,510.59
2022-11-13T03:07:49.448Z,506.33
2022-11-13T03:08:45.626Z,508.64
2022-11-13T03:09:40.800Z,505.94
2022-11-13T03:10:36.696Z,506.33
2022-11-13T03:11:31.695Z,505.56
2022-11-13T03:12:27.146Z,508.26
2022-11-13T03:13:22.759Z,516.53
2022-11-13T03:14:18.058Z,512.55
2022-11-13T03:15:14.569Z,515.33
2022-11-13T03:16:09.181Z,519.34
2022-11-13T03:17:04.490Z,517.33
2022-11-13T03:18:00.509Z,510.98
2022-11-13T03:18:55.688Z,512.95
2022-11-13T03:19:50.864Z,513.74
2022-11-13T03:20:47.172Z,514.14
2022-11-13T03:21:42.351Z,516.53
2022-11-13T03:22:38.215Z,508.26
2022-11-13T03:23:33.376Z,513.74
2022-11-13T03:24:28.764Z,516.53
2022-11-13T03:25:24.399Z,512.95
2022-11-13T03:26:19.578Z,512.95
2022-11-13T03:27:14.914Z,512.16
2022-11-13T03:28:10.031Z,510.98
2022-11-13T03:29:06.868Z,506.71
2022-11-13T03:30:01.320Z,504.79
2022-11-13T03:30:56.338Z,503.65
2022-11-13T03:31:52.861Z,499.13
2022-11-13T03:32:48.192Z,502.51
2022-11-13T03:33:43.905Z,502.51
2022-11-13T03:34:39.199Z,502.13
2022-11-13T03:35:41.815Z,500.62
2022-11-13T03:36:31.205Z,500.62
2022-11-13T03:37:25.459Z,502.89
2022-11-13T03:38:21.302Z,501.00
2022-11-13T03:39:16.462Z,495.42
2022-11-13T03:40:11.852Z,493.22
2022-11-13T03:41:07.569Z,497.27
2022-11-13T03:42:02.751Z,499.88
2022-11-13T03:42:57.895Z,501.00
2022-11-13T03:43:54.288Z,499.88
2022-11-13T03:44:49.462Z,502.89
2022-11-13T03:45:44.591Z,497.27
2022-11-13T03:46:39.784Z,498.38
2022-11-13T03:47:35.066Z,498.38
2022-11-13T03:48:30.384Z,488.52
2022-11-13T03:49:25.120Z,496.52
2022-11-13T03:50:20.111Z,497.27
2022-11-13T03:51:15.301Z,495.42
2022-11-13T03:52:10.334Z,498.01
2022-11-13T03:53:05.354Z,498.01
2022-11-13T03:54:00.385Z,498.75
2022-11-13T03:54:55.468Z,501.38
2022-11-13T03:55:50.499Z,508.26
2022-11-13T03:56:45.556Z,509.81
2022-11-13T03:57:44.635Z,508.26
2022-11-13T03:58:40.375Z,505.56
2022-11-13T03:59:34.724Z,504.79
2022-11-13T04:00:29.773Z,506.71
2022-11-13T04:01:24.877Z,507.10
2022-11-13T04:02:19.894Z,507.10
2022-11-13T04:03:14.956Z,509.42
2022-11-13T04:04:10.132Z,510.20
2022-11-13T04:05:05.199Z,513.74
2022-11-13T04:06:00.241Z,514.14
2022-11-13T04:06:55.474Z,512.95
2022-11-13T04:07:50.520Z,514.53
2022-11-13T04:08:45.562Z,511.38
2022-11-13T04:09:40.635Z,510.59
2022-11-13T04:10:35.794Z,511.77
2022-11-13T04:11:31.544Z,511.77
2022-11-13T04:12:26.840Z,509.81
2022-11-13T04:13:22.808Z,508.64
2022-11-13T04:14:17.989Z,507.10
2022-11-13T04:15:13.293Z,509.81
2022-11-13T04:16:09.165Z,507.48
2022-11-13T04:17:04.343Z,510.59
2022-11-13T04:17:59.615Z,512.95
2022-11-13T04:18:56.795Z,509.81
2022-11-13T04:19:51.442Z,508.26
2022-11-13T04:20:47.045Z,506.33
2022-11-13T04:21:42.334Z,505.94
2022-11-13T04:22:37.655Z,509.03
2022-11-13T04:23:33.337Z,506.71
2022-11-13T04:24:28.495Z,507.10
2022-11-13T04:25:24.385Z,501.00
2022-11-13T04:26:19.525Z,502.89
2022-11-13T04:27:14.957Z,499.88
2022-11-13T04:28:10.708Z,495.05
2022-11-13T04:29:05.869Z,496.16
2022-11-13T04:30:01.054Z,496.16
2022-11-13T04:30:57.299Z,499.88
2022-11-13T04:31:52.511Z,505.94
2022-11-13T04:32:48.371Z,505.18
2022-11-13T04:33:44.167Z,504.79
2022-11-13T04:34:38.665Z,508.64
2022-11-13T04:35:34.792Z,511.77
2022-11-13T04:36:29.973Z,516.12
2022-11-13T04:37:25.689Z,520.96
2022-11-13T04:38:20.840Z,520.15
2022-11-13T04:39:16.812Z,523.83
2022-11-13T04:40:11.966Z,520.15
2022-11-13T04:41:07.164Z,525.07
2022-11-13T04:42:02.323Z,528.39
2022-11-13T04:42:58.621Z,528.81
2022-11-13T04:43:53.788Z,531.77
2022-11-13T04:44:49.743Z,528.39
2022-11-13T04:45:44.927Z,521.37
2022-11-13T04:46:40.087Z,525.89
2022-11-13T04:47:35.942Z,527.98
2022-11-13T04:48:31.301Z,530.50
2022-11-13T04:49:27.005Z,524.24
2022-11-13T04:50:22.076Z,525.07
2022-11-13T04:51:17.245Z,527.14
2022-11-13T04:52:13.134Z,529.23
2022-11-13T04:53:08.303Z,533.89
2022-11-13T04:54:03.609Z,538.20
2022-11-13T04:54:59.899Z,538.20
2022-11-13T04:55:55.048Z,542.58
2022-11-13T04:56:51.035Z,537.34
2022-11-13T04:57:46.216Z,533.04
2022-11-13T04:58:42.236Z,525.89
2022-11-13T04:59:37.256Z,525.89
2022-11-13T05:00:32.748Z,526.72
2022-11-13T05:01:28.278Z,527.98
2022-11-13T05:02:23.463Z,529.23
2022-11-13T05:03:18.729Z,529.23
2022-11-13T05:04:15.127Z,532.19
2022-11-13T05:05:10.419Z,533.89
2022-11-13T05:06:06.588Z,536.04
2022-11-13T05:07:01.589Z,536.90
2022-11-13T05:07:56.908Z,534.75
2022-11-13T05:08:52.518Z,536.90
2022-11-13T05:09:47.819Z,537.77
2022-11-13T05:10:43.887Z,538.64
2022-11-13T05:11:38.883Z,536.47
2022-11-13T05:12:34.307Z,545.24
2022-11-13T05:13:29.861Z,540.82
2022-11-13T05:14:24.623Z,539.95
2022-11-13T05:15:21.339Z,539.51
2022-11-13T05:16:16.488Z,543.02
2022-11-13T05:17:11.936Z,542.14
2022-11-13T05:18:07.545Z,537.34
2022-11-13T05:19:02.733Z,537.34
2022-11-13T05:19:57.928Z,538.20
2022-11-13T05:20:53.230Z,540.82
2022-11-13T05:21:48.254Z,534.32
2022-11-13T05:22:43.355Z,538.20
2022-11-13T05:23:38.394Z,540.38
2022-11-13T05:24:33.420Z,542.14
2022-11-13T05:25:28.486Z,534.32
2022-11-13T05:26:23.633Z,539.51
2022-11-13T05:27:19.125Z,545.24
2022-11-13T05:28:14.020Z,543.02
2022-11-13T05:29:09.024Z,533.47
2022-11-13T05:30:04.074Z,529.65
2022-11-13T05:30:59.144Z,533.89
2022-11-13T05:31:54.174Z,530.07
2022-11-13T05:32:49.228Z,527.98
2022-11-13T05:33:44.251Z,531.77
2022-11-13T05:34:39.279Z,539.07
2022-11-13T05:35:34.956Z,541.70
2022-11-13T05:36:29.359Z,545.24
2022-11-13T05:37:24.280Z,546.14
2022-11-13T05:38:19.283Z,546.14
2022-11-13T05:39:14.313Z,554.31
2022-11-13T05:40:09.338Z,553.85
2022-11-13T05:41:04.776Z,554.77
2022-11-13T05:41:59.794Z,552.93
2022-11-13T05:42:55.084Z,552.93
2022-11-13T05:43:53.725Z,550.19
2022-11-13T05:44:47.158Z,561.31
2022-11-13T05:45:41.417Z,562.25
2022-11-13T05:46:36.599Z,566.07
2022-11-13T05:47:32.863Z,569.94
2022-11-13T05:48:28.464Z,569.94
2022-11-13T05:49:24.626Z,567.03
2022-11-13T05:50:19.238Z,558.96
2022-11-13T05:51:14.963Z,567.03
2022-11-13T05:52:10.147Z,566.07
2022-11-13T05:53:05.349Z,568.97
2022-11-13T05:54:01.205Z,570.92
2022-11-13T05:54:56.360Z,571.41
2022-11-13T05:55:51.702Z,577.84
2022-11-13T05:56:47.574Z,574.36
2022-11-13T05:57:42.639Z,576.84
2022-11-13T05:58:37.913Z,574.86
2022-11-13T05:59:34.316Z,578.85
2022-11-13T06:00:29.644Z,576.84
2022-11-13T06:01:25.381Z,574.86
2022-11-13T06:02:20.619Z,576.84
2022-11-13T06:03:15.765Z,576.84
2022-11-13T06:04:11.646Z,578.85
2022-11-13T06:05:06.831Z,579.35
2022-11-13T06:06:02.763Z,576.35
2022-11-13T06:06:57.906Z,578.35
2022-11-13T06:07:53.245Z,584.43
2022-11-13T06:08:49.560Z,589.60
2022-11-13T06:09:44.096Z,589.60
2022-11-13T06:10:39.427Z,596.99
2022-11-13T06:11:35.629Z,596.99
2022-11-13T06:12:30.879Z,601.84
2022-11-13T06:13:26.754Z,602.38
2022-11-13T06:14:21.960Z,607.32
2022-11-13T06:15:17.331Z,607.32
2022-11-13T06:16:13.031Z,610.65
2022-11-13T06:17:08.263Z,610.65
2022-11-13T06:18:04.047Z,608.42
2022-11-13T06:18:59.238Z,608.98
2022-11-13T06:19:54.604Z,605.11
2022-11-13T06:20:50.338Z,599.13
2022-11-13T06:21:45.555Z,593.80
2022-11-13T06:22:40.772Z,594.33
2022-11-13T06:23:37.083Z,588.04
2022-11-13T06:24:32.332Z,596.45
2022-11-13T06:25:28.144Z,598.06
2022-11-13T06:26:23.456Z,592.21
2022-11-13T06:27:18.787Z,599.67
2022-11-13T06:28:14.446Z,595.39
2022-11-13T06:29:09.757Z,593.27
2022-11-13T06:30:05.560Z,591.69
2022-11-13T06:31:00.851Z,590.12
2022-11-13T06:31:56.148Z,585.97
2022-11-13T06:32:51.998Z,571.41
2022-11-13T06:33:47.276Z,570.43
2022-11-13T06:34:42.516Z,573.87
2022-11-13T06:35:39.035Z,569.94
2022-11-13T06:36:34.363Z,572.39
2022-11-13T06:37:34.511Z,572.39
2022-11-13T06:38:25.665Z,574.86
2022-11-13T06:39:20.894Z,574.36
2022-11-13T06:40:16.835Z,574.36
2022-11-13T06:41:12.155Z,580.36
2022-11-13T06:42:08.052Z,583.92
2022-11-13T06:43:03.262Z,584.43
2022-11-13T06:44:02.581Z,584.94
2022-11-13T06:44:54.399Z,588.55
2022-11-13T06:45:49.578Z,594.33
2022-11-13T06:46:46.218Z,588.55
2022-11-13T06:47:41.820Z,591.69
2022-11-13T06:48:37.274Z,598.06
2022-11-13T06:49:32.585Z,597.52
2022-11-13T06:50:27.942Z,608.98
2022-11-13T06:51:23.700Z,614.03
2022-11-13T06:52:19.041Z,615.73
2022-11-13T06:53:14.800Z,614.59
2022-11-13T06:54:10.112Z,612.90
2022-11-13T06:55:05.551Z,614.03
2022-11-13T06:56:01.291Z,612.90
2022-11-13T06:56:56.628Z,606.76
2022-11-13T06:57:51.925Z,602.92
2022-11-13T06:58:48.278Z,605.66
2022-11-13T06:59:43.589Z,601.29
2022-11-13T07:00:40.232Z,607.32
2022-11-13T07:01:34.743Z,612.90
2022-11-13T07:02:30.129Z,602.92
2022-11-13T07:03:25.450Z,600.75
2022-11-13T07:04:20.808Z,603.47
2022-11-13T07:05:16.111Z,601.84
2022-11-13T07:06:11.173Z,601.84
2022-11-13T07:07:06.309Z,604.02
2022-11-13T07:08:01.591Z,596.99
2022-11-13T07:08:56.398Z,505.18
2022-11-13T07:09:51.450Z,480.08
2022-11-13T07:10:46.522Z,507.87
2022-11-13T07:11:41.582Z,527.14
2022-11-13T07:12:36.655Z,534.75
2022-11-13T07:13:31.913Z,545.24
2022-11-13T07:14:26.875Z,550.19
2022-11-13T07:15:23.608Z,544.35
2022-11-13T07:16:18.897Z,528.81
2022-11-13T07:17:14.248Z,530.92
2022-11-13T07:18:09.647Z,543.02
2022-11-13T07:19:04.794Z,541.26
2022-11-13T07:19:59.756Z,547.03
2022-11-13T07:20:54.940Z,555.69
2022-11-13T07:21:49.877Z,555.69
2022-11-13T07:22:45.111Z,556.62
2022-11-13T07:23:40.114Z,560.84
2022-11-13T07:24:35.084Z,557.55
2022-11-13T07:25:30.073Z,563.68
2022-11-13T07:26:25.157Z,567.52
2022-11-13T07:27:20.262Z,565.59
2022-11-13T07:28:15.499Z,570.43
2022-11-13T07:29:10.905Z,569.46
2022-11-13T07:30:06.706Z,562.73
2022-11-13T07:31:02.042Z,557.55
2022-11-13T07:31:57.463Z,551.10
2022-11-13T07:32:53.297Z,556.16
2022-11-13T07:33:48.719Z,559.42
2022-11-13T07:34:44.512Z,558.96
2022-11-13T07:35:39.887Z,560.36
2022-11-13T07:36:35.279Z,565.11
2022-11-13T07:37:31.157Z,565.59
2022-11-13T07:38:26.994Z,562.25
2022-11-13T07:39:22.093Z,561.31
2022-11-13T07:40:17.124Z,558.02
2022-11-13T07:41:12.168Z,548.83
2022-11-13T07:42:07.180Z,544.35
2022-11-13T07:43:02.280Z,546.59
2022-11-13T07:43:57.302Z,542.58
2022-11-13T07:44:54.885Z,543.02
2022-11-13T07:45:47.430Z,544.80
2022-11-13T07:46:42.448Z,547.48
2022-11-13T07:47:37.642Z,552.01
2022-11-13T07:48:32.735Z,556.16
2022-11-13T07:49:27.539Z,556.62
2022-11-13T07:50:24.787Z,565.59
2022-11-13T07:51:19.772Z,566.55
2022-11-13T07:52:14.944Z,565.11
2022-11-13T07:53:09.926Z,566.55
2022-11-13T07:54:05.027Z,558.96
2022-11-13T07:55:00.035Z,557.09
2022-11-13T07:55:55.050Z,552.93
2022-11-13T07:56:50.088Z,557.55
2022-11-13T07:57:45.079Z,556.62
2022-11-13T07:58:40.213Z,552.47
2022-11-13T07:59:36.239Z,547.03
2022-11-13T08:00:31.649Z,547.48
2022-11-13T08:01:27.593Z,548.38
2022-11-13T08:02:26.513Z,544.80
2022-11-13T08:03:18.528Z,544.80
2022-11-13T08:04:13.577Z,539.51
2022-11-13T08:05:08.594Z,541.26
2022-11-13T08:06:09.042Z,549.74
2022-11-13T08:07:04.416Z,548.38
2022-11-13T08:07:59.842Z,548.83
2022-11-13T08:08:55.576Z,551.56
2022-11-13T08:09:51.002Z,549.74
2022-11-13T08:10:46.426Z,550.65
2022-11-13T08:11:42.717Z,554.31
2022-11-13T08:12:38.163Z,555.23
2022-11-13T08:13:33.986Z,558.49
2022-11-13T08:14:29.619Z,554.77
2022-11-13T08:15:25.054Z,557.55
2022-11-13T08:16:20.795Z,559.42
2022-11-13T08:17:16.241Z,571.41
2022-11-13T08:18:12.585Z,569.94
2022-11-13T08:19:07.476Z,572.39
2022-11-13T08:20:02.905Z,576.84
2022-11-13T08:20:58.651Z,568.48
2022-11-13T08:21:54.788Z,566.55
2022-11-13T08:22:49.508Z,561.31
2022-11-13T08:23:44.595Z,557.55
2022-11-13T08:24:39.640Z,565.11
2022-11-13T08:25:34.670Z,560.36
2022-11-13T08:26:30.036Z,559.42
2022-11-13T08:27:24.775Z,558.96
2022-11-13T08:28:19.831Z,559.89
2022-11-13T08:29:14.851Z,553.39
2022-11-13T08:30:09.887Z,552.01
2022-11-13T08:31:05.063Z,554.77
2022-11-13T08:32:00.117Z,552.93
2022-11-13T08:32:55.127Z,556.16
2022-11-13T08:33:50.146Z,547.48
2022-11-13T08:34:45.199Z,549.74
2022-11-13T08:35:40.423Z,550.19
2022-11-13T08:36:35.387Z,548.38
2022-11-13T08:37:30.416Z,547.48
2022-11-13T08:38:26.036Z,545.24
2022-11-13T08:39:21.098Z,556.16
2022-11-13T08:40:16.611Z,555.69
2022-11-13T08:41:12.339Z,562.73
2022-11-13T08:42:07.731Z,558.96
2022-11-13T08:43:03.169Z,563.20
2022-11-13T08:43:58.644Z,568.00
2022-11-13T08:44:54.070Z,543.47
2022-11-13T08:45:50.848Z,549.74
2022-11-13T08:46:46.353Z,554.77
2022-11-13T08:47:42.233Z,561.78
2022-11-13T08:48:37.559Z,566.07
2022-11-13T08:49:32.968Z,572.88
2022-11-13T08:50:28.657Z,571.90
2022-11-13T08:51:25.151Z,577.34
2022-11-13T08:52:20.650Z,576.84
2022-11-13T08:53:16.099Z,570.92
2022-11-13T08:54:11.556Z,572.39
2022-11-13T08:55:06.597Z,566.55
2022-11-13T08:56:01.642Z,569.94
2022-11-13T08:56:59.627Z,551.10
2022-11-13T08:57:52.767Z,548.38
2022-11-13T08:58:46.839Z,544.35
2022-11-13T08:59:42.044Z,551.10
2022-11-13T09:00:36.940Z,552.93
2022-11-13T09:01:31.988Z,549.74
2022-11-13T09:02:27.080Z,553.85
2022-11-13T09:03:22.554Z,550.19
2022-11-13T09:04:18.856Z,552.01
2022-11-13T09:05:14.333Z,566.07
2022-11-13T09:06:10.169Z,565.11
2022-11-13T09:07:05.681Z,565.59
2022-11-13T09:08:01.211Z,568.00
2022-11-13T09:08:57.011Z,574.86
2022-11-13T09:09:52.433Z,569.94
2022-11-13T09:10:48.310Z,571.90
2022-11-13T09:11:43.580Z,567.03
2022-11-13T09:12:39.011Z,562.73
2022-11-13T09:13:36.603Z,560.36
2022-11-13T09:14:31.348Z,558.02
2022-11-13T09:15:25.600Z,564.16
2022-11-13T09:16:20.678Z,558.49
2022-11-13T09:17:16.016Z,554.77
2022-11-13T09:18:10.803Z,557.55
2022-11-13T09:19:05.824Z,553.39
2022-11-13T09:20:03.922Z,558.49
2022-11-13T09:20:55.959Z,557.09
2022-11-13T09:21:50.976Z,553.39
2022-11-13T09:22:49.971Z,553.85
2022-11-13T09:23:44.984Z,553.39
2022-11-13T09:24:40.194Z,549.74
2022-11-13T09:25:37.652Z,552.47
2022-11-13T09:26:30.163Z,554.31
2022-11-13T09:27:25.319Z,554.77
2022-11-13T09:28:20.330Z,551.10
2022-11-13T09:29:15.380Z,547.93
2022-11-13T09:30:10.468Z,551.10
2022-11-13T09:31:05.472Z,543.47
2022-11-13T09:32:01.608Z,536.90
2022-11-13T09:32:57.033Z,536.90
2022-11-13T09:33:52.915Z,530.50
2022-11-13T09:34:48.410Z,520.15
2022-11-13T09:35:43.829Z,506.33
2022-11-13T09:36:39.598Z,509.81
2022-11-13T09:37:35.035Z,508.64
2022-11-13T09:38:31.167Z,504.03
2022-11-13T09:39:26.352Z,504.03
2022-11-13T09:40:21.732Z,493.95
2022-11-13T09:41:17.500Z,493.22
2022-11-13T09:42:12.967Z,491.04
2022-11-13T09:43:08.420Z,488.88
2022-11-13T09:44:04.697Z,487.45
2022-11-13T09:45:00.142Z,489.60
2022-11-13T09:45:56.057Z,493.22
2022-11-13T09:46:51.525Z,499.13
2022-11-13T09:47:46.944Z,491.40
2022-11-13T09:48:42.693Z,493.22
2022-11-13T09:49:38.171Z,491.40
2022-11-13T09:50:34.035Z,488.88
2022-11-13T09:51:29.369Z,484.97
2022-11-13T09:52:24.854Z,480.43
2022-11-13T09:53:20.555Z,483.91
2022-11-13T09:54:16.056Z,488.88
2022-11-13T09:55:11.489Z,491.04
2022-11-13T09:56:07.778Z,485.68
2022-11-13T09:57:03.235Z,490.32
2022-11-13T09:57:58.676Z,483.21
2022-11-13T09:58:54.174Z,490.32
2022-11-13T09:59:49.884Z,488.17
2022-11-13T10:00:45.429Z,489.96
2022-11-13T10:01:41.109Z,486.39
2022-11-13T10:02:36.585Z,491.77
2022-11-13T10:03:59.916Z,495.42
2022-11-13T10:04:28.877Z,495.05
2022-11-13T10:05:23.242Z,495.42
2022-11-13T10:06:18.650Z,496.52
2022-11-13T10:07:15.364Z,493.22
2022-11-13T10:08:10.683Z,495.42
2022-11-13T10:09:06.412Z,492.13
2022-11-13T10:10:01.838Z,486.39
2022-11-13T10:10:57.272Z,476.31
2022-11-13T10:11:53.295Z,472.60
2022-11-13T10:12:48.742Z,471.59
2022-11-13T10:13:44.492Z,465.67
2022-11-13T10:14:39.937Z,461.16
2022-11-13T10:15:35.347Z,459.25
2022-11-13T10:16:30.798Z,457.36
2022-11-13T10:17:26.208Z,457.05
2022-11-13T10:18:21.780Z,458.62
2022-11-13T10:19:16.875Z,452.40
2022-11-13T10:20:11.892Z,444.85
2022-11-13T10:21:11.789Z,436.12
2022-11-13T10:22:31.614Z,429.94
2022-11-13T10:23:03.566Z,425.82
2022-11-13T10:23:57.963Z,425.28
2022-11-13T10:24:53.945Z,426.64
2022-11-13T10:25:49.379Z,422.05
2022-11-13T10:26:44.825Z,418.86
2022-11-13T10:27:40.549Z,418.08
2022-11-13T10:28:50.132Z,421.51
2022-11-13T10:29:32.497Z,420.18
2022-11-13T10:30:27.425Z,417.82
2022-11-13T10:31:22.751Z,420.45
2022-11-13T10:32:18.172Z,414.44
2022-11-13T10:33:14.593Z,411.88
2022-11-13T10:34:10.068Z,402.19
2022-11-13T10:35:05.822Z,411.12
2022-11-13T10:36:01.250Z,415.47
2022-11-13T10:36:56.702Z,415.99
2022-11-13T10:37:52.557Z,420.45
2022-11-13T10:38:48.023Z,421.25
2022-11-13T10:39:43.800Z,416.51
2022-11-13T10:40:39.292Z,419.66
2022-11-13T10:41:34.771Z,435.27
2022-11-13T10:42:30.675Z,439.86
2022-11-13T10:43:26.224Z,438.13
2022-11-13T10:44:21.504Z,416.25
2022-11-13T10:45:18.199Z,411.12
2022-11-13T10:46:13.676Z,414.95
2022-11-13T10:47:09.552Z,413.16
2022-11-13T10:48:05.438Z,400.02
2022-11-13T10:49:00.382Z,400.74
2022-11-13T10:49:56.378Z,398.58
2022-11-13T10:50:51.816Z,393.18
2022-11-13T10:51:47.683Z,395.75
2022-11-13T10:52:43.084Z,394.81
2022-11-13T10:53:38.382Z,389.96
2022-11-13T10:54:34.119Z,386.79
2022-11-13T10:55:29.618Z,383.68
2022-11-13T10:56:25.067Z,382.58
2022-11-13T10:57:21.922Z,383.68
2022-11-13T10:58:16.840Z,383.90
2022-11-13T10:59:12.683Z,380.18
2022-11-13T11:00:08.153Z,383.90
2022-11-13T11:01:03.624Z,389.51
2022-11-13T11:01:59.493Z,392.95
2022-11-13T11:02:54.880Z,390.65
2022-11-13T11:03:50.723Z,387.24
2022-11-13T11:04:46.065Z,379.53
2022-11-13T11:05:41.488Z,375.57
2022-11-13T11:07:12.808Z,373.43
2022-11-13T11:07:33.695Z,380.83
2022-11-13T11:08:28.286Z,382.80
2022-11-13T11:09:23.147Z,379.53
2022-11-13T11:10:18.187Z,377.73
2022-11-13T11:11:13.247Z,370.48
2022-11-13T11:12:08.875Z,376.00
2022-11-13T11:13:03.408Z,380.61
2022-11-13T11:13:58.445Z,376.43
2022-11-13T11:14:53.530Z,352.95
2022-11-13T11:15:48.555Z,357.17
2022-11-13T11:16:43.607Z,359.52
2022-11-13T11:17:38.685Z,361.90
2022-11-13T11:18:33.713Z,365.53
2022-11-13T11:19:30.887Z,363.91
2022-11-13T11:20:26.010Z,361.50
2022-11-13T11:21:21.094Z,363.50
2022-11-13T11:22:16.189Z,364.31
2022-11-13T11:23:11.280Z,363.50
2022-11-13T11:24:06.263Z,361.50
2022-11-13T11:25:01.230Z,361.50
2022-11-13T11:25:56.372Z,366.34
2022-11-13T11:26:51.329Z,366.34
2022-11-13T11:27:46.820Z,372.58
2022-11-13T11:28:42.288Z,374.28
2022-11-13T11:29:38.088Z,370.48
2022-11-13T11:30:33.450Z,367.16
2022-11-13T11:31:28.957Z,363.91
2022-11-13T11:32:24.759Z,352.95